sensor_id;sensor_type;location;lat;lon;timestamp;temperature;humidity
54429;DHT22;40337;52.978;6.310;2022-10-16T00:01:11;12.70;99.90
54429;DHT22;40337;52.978;6.310;2022-10-16T00:03:39;12.70;99.90
54429;DHT22;40337;52.978;6.310;2022-10-16T00:06:05;12.70;99.90
54429;DHT22;40337;52.978;6.310;2022-10-16T00:08:31;12.70;99.90
54429;DHT22;40337;52.978;6.310;2022-10-16T00:11:02;12.70;99.90
54429;DHT22;40337;52.978;6.310;2022-10-16T00:13:28;12.70;99.90
54429;DHT22;40337;52.978;6.310;2022-10-16T00:15:58;12.70;99.90
54429;DHT22;40337;52.978;6.310;2022-10-16T00:18:24;12.70;99.90
54429;DHT22;40337;52.978;6.310;2022-10-16T00:20:50;12.70;99.90
54429;DHT22;40337;52.978;6.310;2022-10-16T00:23:16;12.70;99.90
54429;DHT22;40337;52.978;6.310;2022-10-16T00:25:42;12.70;99.90
54429;DHT22;40337;52.978;6.310;2022-10-16T00:28:07;12.80;99.90
54429;DHT22;40337;52.978;6.310;2022-10-16T00:30:33;12.80;99.90
54429;DHT22;40337;52.978;6.310;2022-10-16T00:32:58;12.80;99.90
54429;DHT22;40337;52.978;6.310;2022-10-16T00:35:24;12.80;99.90
54429;DHT22;40337;52.978;6.310;2022-10-16T00:37:49;12.90;99.90
54429;DHT22;40337;52.978;6.310;2022-10-16T00:40:15;12.90;99.90
54429;DHT22;40337;52.978;6.310;2022-10-16T00:42:41;12.90;99.90
54429;DHT22;40337;52.978;6.310;2022-10-16T00:45:08;13.00;99.90
54429;DHT22;40337;52.978;6.310;2022-10-16T00:47:37;12.90;99.90
54429;DHT22;40337;52.978;6.310;2022-10-16T00:50:30;12.90;99.90
54429;DHT22;40337;52.978;6.310;2022-10-16T00:52:56;13.00;99.90
54429;DHT22;40337;52.978;6.310;2022-10-16T00:55:23;12.90;99.90
54429;DHT22;40337;52.978;6.310;2022-10-16T00:57:50;12.90;99.90
54429;DHT22;40337;52.978;6.310;2022-10-16T01:00:20;12.90;99.90
54429;DHT22;40337;52.978;6.310;2022-10-16T01:02:54;12.90;99.90
54429;DHT22;40337;52.978;6.310;2022-10-16T01:05:22;12.90;99.90
54429;DHT22;40337;52.978;6.310;2022-10-16T01:08:04;12.90;99.90
54429;DHT22;40337;52.978;6.310;2022-10-16T01:10:52;12.90;99.90
54429;DHT22;40337;52.978;6.310;2022-10-16T01:13:35;13.00;99.90
54429;DHT22;40337;52.978;6.310;2022-10-16T01:16:18;13.00;99.90
54429;DHT22;40337;52.978;6.310;2022-10-16T01:18:53;13.00;99.90
54429;DHT22;40337;52.978;6.310;2022-10-16T01:21:24;13.10;99.90
54429;DHT22;40337;52.978;6.310;2022-10-16T01:24:06;13.00;99.90
54429;DHT22;40337;52.978;6.310;2022-10-16T01:29:27;13.10;99.90
54429;DHT22;40337;52.978;6.310;2022-10-16T01:31:58;13.10;99.90
54429;DHT22;40337;52.978;6.310;2022-10-16T01:34:38;13.10;99.90
54429;DHT22;40337;52.978;6.310;2022-10-16T01:37:14;13.10;99.90
54429;DHT22;40337;52.978;6.310;2022-10-16T01:39:42;13.10;99.90
54429;DHT22;40337;52.978;6.310;2022-10-16T01:42:28;13.10;99.90
54429;DHT22;40337;52.978;6.310;2022-10-16T01:44:58;13.10;99.90
54429;DHT22;40337;52.978;6.310;2022-10-16T01:47:25;13.00;99.90
54429;DHT22;40337;52.978;6.310;2022-10-16T01:49:53;13.00;99.90
54429;DHT22;40337;52.978;6.310;2022-10-16T01:52:23;13.00;99.90
54429;DHT22;40337;52.978;6.310;2022-10-16T01:54:52;13.00;99.90
54429;DHT22;40337;52.978;6.310;2022-10-16T01:57:21;13.10;99.90
54429;DHT22;40337;52.978;6.310;2022-10-16T01:59:50;13.10;99.90
54429;DHT22;40337;52.978;6.310;2022-10-16T02:02:18;13.10;99.90
54429;DHT22;40337;52.978;6.310;2022-10-16T02:04:51;13.00;99.90
54429;DHT22;40337;52.978;6.310;2022-10-16T02:07:18;13.10;99.90
54429;DHT22;40337;52.978;6.310;2022-10-16T02:09:44;13.10;99.90
54429;DHT22;40337;52.978;6.310;2022-10-16T02:12:19;13.10;99.90
54429;DHT22;40337;52.978;6.310;2022-10-16T02:14:47;13.10;99.90
54429;DHT22;40337;52.978;6.310;2022-10-16T02:17:15;13.10;99.90
54429;DHT22;40337;52.978;6.310;2022-10-16T02:19:42;13.10;99.90
54429;DHT22;40337;52.978;6.310;2022-10-16T02:22:14;13.10;99.90
54429;DHT22;40337;52.978;6.310;2022-10-16T02:25:04;13.10;99.90
54429;DHT22;40337;52.978;6.310;2022-10-16T02:27:45;13.10;99.90
54429;DHT22;40337;52.978;6.310;2022-10-16T02:30:40;13.10;99.90
54429;DHT22;40337;52.978;6.310;2022-10-16T02:33:10;13.10;99.90
54429;DHT22;40337;52.978;6.310;2022-10-16T02:35:37;13.10;99.90
54429;DHT22;40337;52.978;6.310;2022-10-16T02:38:04;13.10;99.90
54429;DHT22;40337;52.978;6.310;2022-10-16T02:40:30;13.10;99.90
54429;DHT22;40337;52.978;6.310;2022-10-16T02:42:56;13.10;99.90
54429;DHT22;40337;52.978;6.310;2022-10-16T02:45:23;13.10;99.90
54429;DHT22;40337;52.978;6.310;2022-10-16T02:47:49;13.10;99.90
54429;DHT22;40337;52.978;6.310;2022-10-16T02:50:15;13.20;99.90
54429;DHT22;40337;52.978;6.310;2022-10-16T02:52:41;13.20;99.90
54429;DHT22;40337;52.978;6.310;2022-10-16T02:55:07;13.20;99.90
54429;DHT22;40337;52.978;6.310;2022-10-16T02:57:32;13.20;99.90
54429;DHT22;40337;52.978;6.310;2022-10-16T02:59:58;13.20;99.90
54429;DHT22;40337;52.978;6.310;2022-10-16T03:02:24;13.10;99.90
54429;DHT22;40337;52.978;6.310;2022-10-16T03:04:50;13.10;99.90
54429;DHT22;40337;52.978;6.310;2022-10-16T03:07:15;13.10;99.90
54429;DHT22;40337;52.978;6.310;2022-10-16T03:09:41;13.10;99.90
54429;DHT22;40337;52.978;6.310;2022-10-16T03:12:07;13.10;99.90
54429;DHT22;40337;52.978;6.310;2022-10-16T03:14:33;13.10;99.90
54429;DHT22;40337;52.978;6.310;2022-10-16T03:16:59;13.10;99.90
54429;DHT22;40337;52.978;6.310;2022-10-16T03:19:24;13.10;99.90
54429;DHT22;40337;52.978;6.310;2022-10-16T03:21:50;13.00;99.90
54429;DHT22;40337;52.978;6.310;2022-10-16T03:24:15;13.00;99.90
54429;DHT22;40337;52.978;6.310;2022-10-16T03:26:41;13.00;99.90
54429;DHT22;40337;52.978;6.310;2022-10-16T03:29:06;13.00;99.90
54429;DHT22;40337;52.978;6.310;2022-10-16T03:31:32;13.00;99.90
54429;DHT22;40337;52.978;6.310;2022-10-16T03:33:58;13.00;99.90
54429;DHT22;40337;52.978;6.310;2022-10-16T03:36:23;13.10;99.90
54429;DHT22;40337;52.978;6.310;2022-10-16T03:38:49;13.00;99.90
54429;DHT22;40337;52.978;6.310;2022-10-16T03:41:14;13.00;99.90
54429;DHT22;40337;52.978;6.310;2022-10-16T03:43:40;12.90;99.90
54429;DHT22;40337;52.978;6.310;2022-10-16T03:46:06;12.90;99.90
54429;DHT22;40337;52.978;6.310;2022-10-16T03:48:31;12.90;99.90
54429;DHT22;40337;52.978;6.310;2022-10-16T03:50:57;12.90;99.90
54429;DHT22;40337;52.978;6.310;2022-10-16T03:53:23;12.90;99.90
54429;DHT22;40337;52.978;6.310;2022-10-16T03:55:49;12.90;99.90
54429;DHT22;40337;52.978;6.310;2022-10-16T03:58:15;12.90;99.90
54429;DHT22;40337;52.978;6.310;2022-10-16T04:00:42;12.90;99.90
54429;DHT22;40337;52.978;6.310;2022-10-16T04:03:08;12.90;99.90
54429;DHT22;40337;52.978;6.310;2022-10-16T04:05:33;12.90;99.90
54429;DHT22;40337;52.978;6.310;2022-10-16T04:07:59;12.90;99.90
54429;DHT22;40337;52.978;6.310;2022-10-16T04:10:25;12.90;99.90
54429;DHT22;40337;52.978;6.310;2022-10-16T04:12:50;12.90;99.90
54429;DHT22;40337;52.978;6.310;2022-10-16T04:15:16;12.90;99.90
54429;DHT22;40337;52.978;6.310;2022-10-16T04:17:41;12.80;99.90
54429;DHT22;40337;52.978;6.310;2022-10-16T04:20:07;12.80;99.90
54429;DHT22;40337;52.978;6.310;2022-10-16T04:22:33;12.80;99.90
54429;DHT22;40337;52.978;6.310;2022-10-16T04:24:58;12.80;99.90
54429;DHT22;40337;52.978;6.310;2022-10-16T04:27:24;12.80;99.90
54429;DHT22;40337;52.978;6.310;2022-10-16T04:29:49;12.80;99.90
54429;DHT22;40337;52.978;6.310;2022-10-16T04:32:15;12.80;99.90
54429;DHT22;40337;52.978;6.310;2022-10-16T04:34:41;12.80;99.90
54429;DHT22;40337;52.978;6.310;2022-10-16T04:37:06;12.80;99.90
54429;DHT22;40337;52.978;6.310;2022-10-16T04:39:32;12.80;99.90
54429;DHT22;40337;52.978;6.310;2022-10-16T04:41:58;12.80;99.90
54429;DHT22;40337;52.978;6.310;2022-10-16T04:44:23;12.90;99.90
54429;DHT22;40337;52.978;6.310;2022-10-16T04:46:52;12.90;99.90
54429;DHT22;40337;52.978;6.310;2022-10-16T04:49:17;12.90;99.90
54429;DHT22;40337;52.978;6.310;2022-10-16T04:51:43;12.90;99.90
54429;DHT22;40337;52.978;6.310;2022-10-16T04:54:09;12.90;99.90
54429;DHT22;40337;52.978;6.310;2022-10-16T04:56:35;12.90;99.90
54429;DHT22;40337;52.978;6.310;2022-10-16T04:59:08;12.90;99.90
54429;DHT22;40337;52.978;6.310;2022-10-16T05:01:33;12.90;99.90
54429;DHT22;40337;52.978;6.310;2022-10-16T05:03:59;13.00;99.90
54429;DHT22;40337;52.978;6.310;2022-10-16T05:06:24;13.00;99.90
54429;DHT22;40337;52.978;6.310;2022-10-16T05:08:50;13.00;99.90
54429;DHT22;40337;52.978;6.310;2022-10-16T05:11:16;13.00;99.90
54429;DHT22;40337;52.978;6.310;2022-10-16T05:13:41;13.00;99.90
54429;DHT22;40337;52.978;6.310;2022-10-16T05:16:07;13.00;99.90
54429;DHT22;40337;52.978;6.310;2022-10-16T05:18:32;13.00;99.90
54429;DHT22;40337;52.978;6.310;2022-10-16T05:20:58;13.00;99.90
54429;DHT22;40337;52.978;6.310;2022-10-16T05:23:23;13.00;99.90
54429;DHT22;40337;52.978;6.310;2022-10-16T05:25:56;13.00;99.90
54429;DHT22;40337;52.978;6.310;2022-10-16T05:28:24;13.00;99.90
54429;DHT22;40337;52.978;6.310;2022-10-16T05:30:50;13.00;99.90
54429;DHT22;40337;52.978;6.310;2022-10-16T05:33:16;13.00;99.90
54429;DHT22;40337;52.978;6.310;2022-10-16T05:35:42;13.00;99.90
54429;DHT22;40337;52.978;6.310;2022-10-16T05:38:07;13.00;99.90
54429;DHT22;40337;52.978;6.310;2022-10-16T05:40:33;13.00;99.90
54429;DHT22;40337;52.978;6.310;2022-10-16T05:42:58;13.00;99.90
54429;DHT22;40337;52.978;6.310;2022-10-16T05:45:24;13.00;99.90
54429;DHT22;40337;52.978;6.310;2022-10-16T05:47:49;13.00;99.90
54429;DHT22;40337;52.978;6.310;2022-10-16T05:50:15;13.00;99.90
54429;DHT22;40337;52.978;6.310;2022-10-16T05:52:41;13.00;99.90
54429;DHT22;40337;52.978;6.310;2022-10-16T05:55:07;13.00;99.90
54429;DHT22;40337;52.978;6.310;2022-10-16T05:57:32;13.00;99.90
54429;DHT22;40337;52.978;6.310;2022-10-16T05:59:58;13.00;99.90
54429;DHT22;40337;52.978;6.310;2022-10-16T06:02:23;13.00;99.90
54429;DHT22;40337;52.978;6.310;2022-10-16T06:04:51;13.00;99.90
54429;DHT22;40337;52.978;6.310;2022-10-16T06:07:16;13.00;99.90
54429;DHT22;40337;52.978;6.310;2022-10-16T06:09:42;13.00;99.90
54429;DHT22;40337;52.978;6.310;2022-10-16T06:12:07;13.00;99.90
54429;DHT22;40337;52.978;6.310;2022-10-16T06:14:33;13.00;99.90
54429;DHT22;40337;52.978;6.310;2022-10-16T06:16:58;13.00;99.90
54429;DHT22;40337;52.978;6.310;2022-10-16T06:19:24;13.00;99.90
54429;DHT22;40337;52.978;6.310;2022-10-16T06:21:49;13.00;99.90
54429;DHT22;40337;52.978;6.310;2022-10-16T06:24:15;13.00;99.90
54429;DHT22;40337;52.978;6.310;2022-10-16T06:26:41;13.00;99.90
54429;DHT22;40337;52.978;6.310;2022-10-16T06:29:07;13.00;99.90
54429;DHT22;40337;52.978;6.310;2022-10-16T06:31:33;13.00;99.90
54429;DHT22;40337;52.978;6.310;2022-10-16T06:33:59;13.00;99.90
54429;DHT22;40337;52.978;6.310;2022-10-16T06:36:26;13.00;99.90
54429;DHT22;40337;52.978;6.310;2022-10-16T06:38:51;13.00;99.90
54429;DHT22;40337;52.978;6.310;2022-10-16T06:41:20;13.00;99.90
54429;DHT22;40337;52.978;6.310;2022-10-16T06:43:46;13.00;99.90
54429;DHT22;40337;52.978;6.310;2022-10-16T06:46:13;13.00;99.90
54429;DHT22;40337;52.978;6.310;2022-10-16T06:48:39;13.00;99.90
54429;DHT22;40337;52.978;6.310;2022-10-16T06:53:33;13.00;99.90
54429;DHT22;40337;52.978;6.310;2022-10-16T06:56:16;13.00;99.90
54429;DHT22;40337;52.978;6.310;2022-10-16T06:58:43;13.00;99.90
54429;DHT22;40337;52.978;6.310;2022-10-16T07:01:09;13.00;99.90
54429;DHT22;40337;52.978;6.310;2022-10-16T07:03:40;13.10;99.90
54429;DHT22;40337;52.978;6.310;2022-10-16T07:06:07;13.10;99.90
54429;DHT22;40337;52.978;6.310;2022-10-16T07:08:39;13.10;99.90
54429;DHT22;40337;52.978;6.310;2022-10-16T07:11:08;13.10;99.90
54429;DHT22;40337;52.978;6.310;2022-10-16T07:13:34;13.10;99.90
54429;DHT22;40337;52.978;6.310;2022-10-16T07:16:08;13.10;99.90
54429;DHT22;40337;52.978;6.310;2022-10-16T07:18:34;13.10;99.90
54429;DHT22;40337;52.978;6.310;2022-10-16T07:21:04;13.10;99.90
54429;DHT22;40337;52.978;6.310;2022-10-16T07:23:30;13.10;99.90
54429;DHT22;40337;52.978;6.310;2022-10-16T07:25:55;13.10;99.90
54429;DHT22;40337;52.978;6.310;2022-10-16T07:28:21;13.10;99.90
54429;DHT22;40337;52.978;6.310;2022-10-16T07:30:47;13.10;99.90
54429;DHT22;40337;52.978;6.310;2022-10-16T07:33:13;13.10;99.90
54429;DHT22;40337;52.978;6.310;2022-10-16T07:35:47;13.20;99.90
54429;DHT22;40337;52.978;6.310;2022-10-16T07:38:13;13.20;99.90
54429;DHT22;40337;52.978;6.310;2022-10-16T07:40:38;13.20;99.90
54429;DHT22;40337;52.978;6.310;2022-10-16T07:43:04;13.30;99.90
54429;DHT22;40337;52.978;6.310;2022-10-16T07:45:30;13.30;99.90
54429;DHT22;40337;52.978;6.310;2022-10-16T07:47:56;13.30;99.90
54429;DHT22;40337;52.978;6.310;2022-10-16T07:50:21;13.40;99.90
54429;DHT22;40337;52.978;6.310;2022-10-16T07:52:47;13.40;99.90
54429;DHT22;40337;52.978;6.310;2022-10-16T07:55:12;13.50;99.90
54429;DHT22;40337;52.978;6.310;2022-10-16T07:57:38;13.60;99.90
54429;DHT22;40337;52.978;6.310;2022-10-16T08:00:04;13.60;99.90
54429;DHT22;40337;52.978;6.310;2022-10-16T08:02:31;13.60;99.90
54429;DHT22;40337;52.978;6.310;2022-10-16T08:04:56;13.70;99.90
54429;DHT22;40337;52.978;6.310;2022-10-16T08:07:22;13.70;99.90
54429;DHT22;40337;52.978;6.310;2022-10-16T08:09:50;13.70;99.90
54429;DHT22;40337;52.978;6.310;2022-10-16T08:12:17;13.80;99.90
54429;DHT22;40337;52.978;6.310;2022-10-16T08:14:42;13.70;99.90
54429;DHT22;40337;52.978;6.310;2022-10-16T08:17:08;13.70;99.90
54429;DHT22;40337;52.978;6.310;2022-10-16T08:19:33;13.60;99.90
54429;DHT22;40337;52.978;6.310;2022-10-16T08:22:00;13.70;99.90
54429;DHT22;40337;52.978;6.310;2022-10-16T08:24:26;13.70;99.90
54429;DHT22;40337;52.978;6.310;2022-10-16T08:26:54;13.80;99.90
54429;DHT22;40337;52.978;6.310;2022-10-16T08:29:19;13.80;99.90
54429;DHT22;40337;52.978;6.310;2022-10-16T08:31:45;13.90;99.90
54429;DHT22;40337;52.978;6.310;2022-10-16T08:34:10;13.90;99.90
54429;DHT22;40337;52.978;6.310;2022-10-16T08:36:36;13.90;99.90
54429;DHT22;40337;52.978;6.310;2022-10-16T08:39:02;13.90;99.90
54429;DHT22;40337;52.978;6.310;2022-10-16T08:41:54;14.00;99.90
54429;DHT22;40337;52.978;6.310;2022-10-16T08:44:29;14.10;99.90
54429;DHT22;40337;52.978;6.310;2022-10-16T08:47:24;14.10;99.90
54429;DHT22;40337;52.978;6.310;2022-10-16T08:49:59;14.10;99.90
54429;DHT22;40337;52.978;6.310;2022-10-16T08:52:30;14.20;99.90
54429;DHT22;40337;52.978;6.310;2022-10-16T08:54:58;14.20;99.90
54429;DHT22;40337;52.978;6.310;2022-10-16T08:57:25;14.20;99.90
54429;DHT22;40337;52.978;6.310;2022-10-16T08:59:57;14.20;99.90
54429;DHT22;40337;52.978;6.310;2022-10-16T09:02:36;14.20;99.90
54429;DHT22;40337;52.978;6.310;2022-10-16T09:05:29;14.30;99.90
54429;DHT22;40337;52.978;6.310;2022-10-16T09:08:15;14.40;99.90
54429;DHT22;40337;52.978;6.310;2022-10-16T09:11:01;14.50;99.90
54429;DHT22;40337;52.978;6.310;2022-10-16T09:16:19;14.70;99.90
54429;DHT22;40337;52.978;6.310;2022-10-16T09:19:12;14.70;99.90
54429;DHT22;40337;52.978;6.310;2022-10-16T09:21:42;14.80;99.90
54429;DHT22;40337;52.978;6.310;2022-10-16T09:24:15;14.80;99.90
54429;DHT22;40337;52.978;6.310;2022-10-16T09:26:42;14.90;99.90
54429;DHT22;40337;52.978;6.310;2022-10-16T09:29:12;15.00;99.90
54429;DHT22;40337;52.978;6.310;2022-10-16T09:31:38;15.20;99.90
54429;DHT22;40337;52.978;6.310;2022-10-16T09:34:05;15.30;99.90
54429;DHT22;40337;52.978;6.310;2022-10-16T09:36:40;15.30;99.90
54429;DHT22;40337;52.978;6.310;2022-10-16T09:39:10;15.30;99.90
54429;DHT22;40337;52.978;6.310;2022-10-16T09:41:39;15.30;99.90
54429;DHT22;40337;52.978;6.310;2022-10-16T09:44:19;15.30;99.90
54429;DHT22;40337;52.978;6.310;2022-10-16T09:46:46;15.30;99.90
54429;DHT22;40337;52.978;6.310;2022-10-16T09:49:24;15.30;99.90
54429;DHT22;40337;52.978;6.310;2022-10-16T09:51:51;15.30;99.90
54429;DHT22;40337;52.978;6.310;2022-10-16T09:54:20;15.40;99.90
54429;DHT22;40337;52.978;6.310;2022-10-16T09:56:47;15.50;99.90
54429;DHT22;40337;52.978;6.310;2022-10-16T09:59:22;15.60;99.90
54429;DHT22;40337;52.978;6.310;2022-10-16T10:01:51;15.60;99.90
54429;DHT22;40337;52.978;6.310;2022-10-16T10:04:18;15.60;99.90
54429;DHT22;40337;52.978;6.310;2022-10-16T10:06:52;15.60;99.90
54429;DHT22;40337;52.978;6.310;2022-10-16T10:09:27;15.60;99.90
54429;DHT22;40337;52.978;6.310;2022-10-16T10:12:03;15.60;99.90
54429;DHT22;40337;52.978;6.310;2022-10-16T10:14:38;15.60;99.90
54429;DHT22;40337;52.978;6.310;2022-10-16T10:19:59;15.70;99.90
54429;DHT22;40337;52.978;6.310;2022-10-16T10:35:54;16.00;99.90
54429;DHT22;40337;52.978;6.310;2022-10-16T10:38:27;16.10;99.90
54429;DHT22;40337;52.978;6.310;2022-10-16T10:47:08;16.50;99.90
54429;DHT22;40337;52.978;6.310;2022-10-16T10:50:03;16.70;99.90
54429;DHT22;40337;52.978;6.310;2022-10-16T10:52:53;16.50;99.90
54429;DHT22;40337;52.978;6.310;2022-10-16T10:55:37;16.50;99.90
54429;DHT22;40337;52.978;6.310;2022-10-16T11:01:04;16.80;99.90
54429;DHT22;40337;52.978;6.310;2022-10-16T11:03:57;16.90;99.90
54429;DHT22;40337;52.978;6.310;2022-10-16T11:06:40;16.70;99.90
54429;DHT22;40337;52.978;6.310;2022-10-16T11:09:24;16.60;99.90
54429;DHT22;40337;52.978;6.310;2022-10-16T11:11:59;16.80;99.90
54429;DHT22;40337;52.978;6.310;2022-10-16T11:14:40;17.10;99.90
54429;DHT22;40337;52.978;6.310;2022-10-16T11:17:12;17.10;99.90
54429;DHT22;40337;52.978;6.310;2022-10-16T11:19:48;17.20;99.90
54429;DHT22;40337;52.978;6.310;2022-10-16T11:30:35;19.50;99.90
54429;DHT22;40337;52.978;6.310;2022-10-16T11:33:25;20.30;99.90
54429;DHT22;40337;52.978;6.310;2022-10-16T11:36:16;20.90;99.90
54429;DHT22;40337;52.978;6.310;2022-10-16T11:38:58;21.30;99.90
54429;DHT22;40337;52.978;6.310;2022-10-16T11:41:54;21.40;99.90
54429;DHT22;40337;52.978;6.310;2022-10-16T11:44:37;21.20;99.30
54429;DHT22;40337;52.978;6.310;2022-10-16T11:49:31;21.10;99.90
54429;DHT22;40337;52.978;6.310;2022-10-16T11:54:35;20.70;98.50
54429;DHT22;40337;52.978;6.310;2022-10-16T11:57:11;20.70;98.70
54429;DHT22;40337;52.978;6.310;2022-10-16T12:00:02;20.50;98.10
54429;DHT22;40337;52.978;6.310;2022-10-16T12:10:34;20.50;98.60
54429;DHT22;40337;52.978;6.310;2022-10-16T12:13:27;20.60;98.10
54429;DHT22;40337;52.978;6.310;2022-10-16T12:18:43;20.50;98.80
54429;DHT22;40337;52.978;6.310;2022-10-16T12:21:10;20.30;99.00
54429;DHT22;40337;52.978;6.310;2022-10-16T12:23:50;20.40;99.10
54429;DHT22;40337;52.978;6.310;2022-10-16T12:26:25;19.90;98.40
54429;DHT22;40337;52.978;6.310;2022-10-16T12:28:51;20.10;99.10
54429;DHT22;40337;52.978;6.310;2022-10-16T12:31:17;20.10;99.10
54429;DHT22;40337;52.978;6.310;2022-10-16T12:34:03;19.70;98.90
54429;DHT22;40337;52.978;6.310;2022-10-16T12:36:32;19.20;98.40
54429;DHT22;40337;52.978;6.310;2022-10-16T12:38:58;18.90;99.60
54429;DHT22;40337;52.978;6.310;2022-10-16T12:43:50;19.00;99.90
54429;DHT22;40337;52.978;6.310;2022-10-16T12:48:43;19.10;99.90
54429;DHT22;40337;52.978;6.310;2022-10-16T12:56:53;19.40;99.90
54429;DHT22;40337;52.978;6.310;2022-10-16T13:17:07;19.00;97.70
54429;DHT22;40337;52.978;6.310;2022-10-16T13:28:05;18.20;98.40
54429;DHT22;40337;52.978;6.310;2022-10-16T13:30:41;18.20;98.70
54429;DHT22;40337;52.978;6.310;2022-10-16T13:33:14;18.30;99.30
54429;DHT22;40337;52.978;6.310;2022-10-16T13:35:51;18.50;99.30
54429;DHT22;40337;52.978;6.310;2022-10-16T13:38:19;18.70;98.70
54429;DHT22;40337;52.978;6.310;2022-10-16T13:41:15;18.90;99.50
54429;DHT22;40337;52.978;6.310;2022-10-16T13:43:46;19.00;99.90
54429;DHT22;40337;52.978;6.310;2022-10-16T13:46:25;18.80;99.90
54429;DHT22;40337;52.978;6.310;2022-10-16T13:49:02;18.60;99.90
54429;DHT22;40337;52.978;6.310;2022-10-16T13:51:28;18.50;99.90
54429;DHT22;40337;52.978;6.310;2022-10-16T13:53:56;18.40;99.90
54429;DHT22;40337;52.978;6.310;2022-10-16T13:56:29;18.30;99.90
54429;DHT22;40337;52.978;6.310;2022-10-16T14:01:28;18.00;99.90
54429;DHT22;40337;52.978;6.310;2022-10-16T14:04:01;18.00;99.90
54429;DHT22;40337;52.978;6.310;2022-10-16T14:06:28;17.70;99.90
54429;DHT22;40337;52.978;6.310;2022-10-16T14:09:24;17.70;99.90
54429;DHT22;40337;52.978;6.310;2022-10-16T14:12:00;17.70;99.90
54429;DHT22;40337;52.978;6.310;2022-10-16T14:14:42;17.60;99.90
54429;DHT22;40337;52.978;6.310;2022-10-16T14:17:34;17.70;99.90
54429;DHT22;40337;52.978;6.310;2022-10-16T14:20:04;17.70;99.90
54429;DHT22;40337;52.978;6.310;2022-10-16T14:22:37;17.60;99.90
54429;DHT22;40337;52.978;6.310;2022-10-16T14:28:13;17.40;99.90
54429;DHT22;40337;52.978;6.310;2022-10-16T14:30:56;17.20;99.90
54429;DHT22;40337;52.978;6.310;2022-10-16T14:33:31;17.00;99.90
54429;DHT22;40337;52.978;6.310;2022-10-16T14:36:12;17.00;99.90
54429;DHT22;40337;52.978;6.310;2022-10-16T14:38:40;16.90;99.90
54429;DHT22;40337;52.978;6.310;2022-10-16T14:41:06;16.90;99.90
54429;DHT22;40337;52.978;6.310;2022-10-16T14:43:42;16.80;99.90
54429;DHT22;40337;52.978;6.310;2022-10-16T14:46:17;16.80;99.90
54429;DHT22;40337;52.978;6.310;2022-10-16T14:48:47;16.70;99.90
54429;DHT22;40337;52.978;6.310;2022-10-16T14:51:15;16.70;99.90
54429;DHT22;40337;52.978;6.310;2022-10-16T14:53:41;16.60;99.90
54429;DHT22;40337;52.978;6.310;2022-10-16T14:56:08;16.50;99.90
54429;DHT22;40337;52.978;6.310;2022-10-16T14:58:35;16.50;99.90
54429;DHT22;40337;52.978;6.310;2022-10-16T15:01:00;16.50;99.90
54429;DHT22;40337;52.978;6.310;2022-10-16T15:03:26;16.40;99.90
54429;DHT22;40337;52.978;6.310;2022-10-16T15:05:52;16.40;99.90
54429;DHT22;40337;52.978;6.310;2022-10-16T15:08:17;16.40;99.90
54429;DHT22;40337;52.978;6.310;2022-10-16T15:10:43;16.40;99.90
54429;DHT22;40337;52.978;6.310;2022-10-16T15:13:13;16.30;99.90
54429;DHT22;40337;52.978;6.310;2022-10-16T15:15:44;16.30;99.90
54429;DHT22;40337;52.978;6.310;2022-10-16T15:18:10;16.30;99.90
54429;DHT22;40337;52.978;6.310;2022-10-16T15:20:38;16.30;99.90
54429;DHT22;40337;52.978;6.310;2022-10-16T15:23:15;16.20;99.90
54429;DHT22;40337;52.978;6.310;2022-10-16T15:25:53;16.20;99.90
54429;DHT22;40337;52.978;6.310;2022-10-16T15:28:20;16.20;99.90
54429;DHT22;40337;52.978;6.310;2022-10-16T15:30:49;16.10;99.90
54429;DHT22;40337;52.978;6.310;2022-10-16T15:33:17;16.10;99.90
54429;DHT22;40337;52.978;6.310;2022-10-16T15:35:47;16.00;99.90
54429;DHT22;40337;52.978;6.310;2022-10-16T15:38:13;16.00;99.90
54429;DHT22;40337;52.978;6.310;2022-10-16T15:40:39;15.90;99.90
54429;DHT22;40337;52.978;6.310;2022-10-16T15:43:05;15.90;99.90
54429;DHT22;40337;52.978;6.310;2022-10-16T15:45:31;15.90;99.90
54429;DHT22;40337;52.978;6.310;2022-10-16T15:47:57;15.90;99.90
54429;DHT22;40337;52.978;6.310;2022-10-16T15:50:22;15.80;99.90
54429;DHT22;40337;52.978;6.310;2022-10-16T15:52:49;15.80;99.90
54429;DHT22;40337;52.978;6.310;2022-10-16T15:55:14;15.80;99.90
54429;DHT22;40337;52.978;6.310;2022-10-16T15:57:41;15.70;99.90
54429;DHT22;40337;52.978;6.310;2022-10-16T16:00:11;15.60;99.90
54429;DHT22;40337;52.978;6.310;2022-10-16T16:02:38;15.60;99.90
54429;DHT22;40337;52.978;6.310;2022-10-16T16:05:03;15.50;99.90
54429;DHT22;40337;52.978;6.310;2022-10-16T16:07:33;15.40;99.90
54429;DHT22;40337;52.978;6.310;2022-10-16T16:09:59;15.30;99.90
54429;DHT22;40337;52.978;6.310;2022-10-16T16:12:25;15.30;99.90
54429;DHT22;40337;52.978;6.310;2022-10-16T16:14:50;15.20;99.90
54429;DHT22;40337;52.978;6.310;2022-10-16T16:17:16;15.20;99.90
54429;DHT22;40337;52.978;6.310;2022-10-16T16:19:42;15.00;99.90
54429;DHT22;40337;52.978;6.310;2022-10-16T16:22:08;14.90;99.90
54429;DHT22;40337;52.978;6.310;2022-10-16T16:24:33;14.90;99.90
54429;DHT22;40337;52.978;6.310;2022-10-16T16:26:59;14.80;99.90
54429;DHT22;40337;52.978;6.310;2022-10-16T16:29:24;14.70;99.90
54429;DHT22;40337;52.978;6.310;2022-10-16T16:31:50;14.60;99.90
54429;DHT22;40337;52.978;6.310;2022-10-16T16:34:25;14.50;99.90
54429;DHT22;40337;52.978;6.310;2022-10-16T16:36:51;14.50;99.90
54429;DHT22;40337;52.978;6.310;2022-10-16T16:39:17;14.40;99.90
54429;DHT22;40337;52.978;6.310;2022-10-16T16:41:42;14.30;99.90
54429;DHT22;40337;52.978;6.310;2022-10-16T16:44:10;14.30;99.90
54429;DHT22;40337;52.978;6.310;2022-10-16T16:46:35;14.20;99.90
54429;DHT22;40337;52.978;6.310;2022-10-16T16:49:03;14.10;99.90
54429;DHT22;40337;52.978;6.310;2022-10-16T16:51:29;14.10;99.90
54429;DHT22;40337;52.978;6.310;2022-10-16T16:53:55;14.00;99.90
54429;DHT22;40337;52.978;6.310;2022-10-16T16:56:22;14.00;99.90
54429;DHT22;40337;52.978;6.310;2022-10-16T16:58:49;13.90;99.90
54429;DHT22;40337;52.978;6.310;2022-10-16T17:01:16;13.90;99.90
54429;DHT22;40337;52.978;6.310;2022-10-16T17:03:43;13.80;99.90
54429;DHT22;40337;52.978;6.310;2022-10-16T17:06:12;13.80;99.90
54429;DHT22;40337;52.978;6.310;2022-10-16T17:08:40;13.80;99.90
54429;DHT22;40337;52.978;6.310;2022-10-16T17:11:06;13.70;99.90
54429;DHT22;40337;52.978;6.310;2022-10-16T17:13:33;13.60;99.90
54429;DHT22;40337;52.978;6.310;2022-10-16T17:16:01;13.60;99.90
54429;DHT22;40337;52.978;6.310;2022-10-16T17:18:26;13.60;99.90
54429;DHT22;40337;52.978;6.310;2022-10-16T17:20:52;13.50;99.90
54429;DHT22;40337;52.978;6.310;2022-10-16T17:23:18;13.40;99.90
54429;DHT22;40337;52.978;6.310;2022-10-16T17:25:45;13.40;99.90